SHPT weather

Portillo Heliport
Los Andes, Valparaíso Region, Chile

Public forecast

Using degrees Celsius for public forecast. Weather courtesy of forecast.io.

METAR (pilot weather report)

Report is more than 6 hours old.

Closest report is Eulogio Sánchez Airport, 42.7 nm (79.0 km) SSW. Retrieved 2019/09/17 23:00 UTC (9 hours ago):

SCTB 172300Z 24004KT CAVOK 15/05 Q1019

TAF (pilot weather forecast)

Closest forecast is Comodoro Arturo Merino Benítez International Airport, 46.9 nm (86.9 km) SW. Retrieved 2019/09/18 06:00 UTC (2 hours ago):

TAF SCEL 180435Z 1806/1906 16004KT CAVOK TX21/1818Z TN04/1811Z TEMPO 1808/1812 VRB02KT 5000 BR SCT010 BKN020 BECMG 1817/1819 20013KT BECMG 1900/1902 18005KT